createdAt,value
2022-10-28T00:00:48.244Z,62.30
2022-10-28T00:03:15.032Z,62.30
2022-10-28T00:05:41.600Z,62.30
2022-10-28T00:08:08.168Z,62.40
2022-10-28T00:10:34.737Z,62.30
2022-10-28T00:13:01.305Z,62.30
2022-10-28T00:15:27.883Z,62.30
2022-10-28T00:17:54.588Z,62.30
2022-10-28T00:20:21.373Z,62.30
2022-10-28T00:22:47.972Z,62.30
2022-10-28T00:25:14.544Z,62.30
2022-10-28T00:27:41.118Z,62.30
2022-10-28T00:30:07.700Z,62.30
2022-10-28T00:32:34.283Z,62.30
2022-10-28T00:35:00.869Z,62.30
2022-10-28T00:37:27.435Z,62.30
2022-10-28T00:39:54.005Z,62.30
2022-10-28T00:42:20.582Z,62.30
2022-10-28T00:44:47.372Z,62.30
2022-10-28T00:47:13.960Z,62.30
2022-10-28T00:49:40.743Z,62.30
2022-10-28T00:52:07.318Z,62.30
2022-10-28T00:54:33.904Z,62.30
2022-10-28T00:57:00.686Z,62.30
2022-10-28T00:59:27.269Z,62.30
2022-10-28T01:01:53.952Z,62.30
2022-10-28T01:04:20.621Z,62.30
2022-10-28T01:06:47.230Z,62.30
2022-10-28T01:09:13.848Z,62.30
2022-10-28T01:11:40.439Z,62.20
2022-10-28T01:14:07.020Z,62.20
2022-10-28T01:16:33.807Z,62.20
2022-10-28T01:19:00.389Z,62.30
2022-10-28T01:21:27.168Z,62.20
2022-10-28T01:23:53.739Z,62.20
2022-10-28T01:26:20.313Z,62.20
2022-10-28T01:28:46.910Z,62.20
2022-10-28T01:31:13.698Z,62.20
2022-10-28T01:33:40.285Z,62.20
2022-10-28T01:36:07.092Z,62.30
2022-10-28T01:38:34.326Z,62.20
2022-10-28T01:41:00.902Z,62.20
2022-10-28T01:43:27.483Z,62.30
2022-10-28T01:45:54.067Z,62.20
2022-10-28T01:48:20.645Z,62.20
2022-10-28T01:50:47.221Z,62.20
2022-10-28T01:53:13.790Z,62.30
2022-10-28T01:55:40.368Z,62.30
2022-10-28T01:58:07.166Z,62.20
2022-10-28T02:00:34.003Z,62.20
2022-10-28T02:03:00.621Z,62.20
2022-10-28T02:05:27.188Z,62.20
2022-10-28T02:07:53.767Z,62.20
2022-10-28T02:10:20.354Z,62.10
2022-10-28T02:12:46.938Z,62.30
2022-10-28T02:15:13.515Z,62.20
2022-10-28T02:17:40.084Z,62.10
2022-10-28T02:20:06.871Z,62.20
2022-10-28T02:22:33.658Z,62.20
2022-10-28T02:25:00.442Z,62.20
2022-10-28T02:27:27.229Z,62.20
2022-10-28T02:29:54.014Z,62.20
2022-10-28T02:32:20.585Z,62.20
2022-10-28T02:34:47.369Z,62.20
2022-10-28T02:37:13.937Z,62.30
2022-10-28T02:39:40.516Z,62.20
2022-10-28T02:42:07.300Z,62.20
2022-10-28T02:44:33.879Z,62.20
2022-10-28T02:47:00.459Z,62.20
2022-10-28T02:49:27.034Z,62.20
2022-10-28T02:51:53.607Z,62.20
2022-10-28T02:54:20.187Z,62.20
2022-10-28T02:56:46.776Z,62.20
2022-10-28T02:59:13.355Z,62.20
2022-10-28T03:01:40.242Z,62.20
2022-10-28T03:04:06.994Z,62.20
2022-10-28T03:06:33.800Z,62.20
2022-10-28T03:09:00.382Z,62.20
2022-10-28T03:11:26.973Z,62.20
2022-10-28T03:13:53.563Z,62.20
2022-10-28T03:16:20.140Z,62.20
2022-10-28T03:18:46.939Z,62.20
2022-10-28T03:21:13.513Z,62.20
2022-10-28T03:23:40.089Z,62.30
2022-10-28T03:26:06.664Z,62.20
2022-10-28T03:28:33.452Z,62.20
2022-10-28T03:31:00.046Z,62.30
2022-10-28T03:33:26.631Z,62.20
2022-10-28T03:35:53.212Z,62.30
2022-10-28T03:38:19.786Z,62.20
2022-10-28T03:40:46.360Z,62.20
2022-10-28T03:43:13.448Z,62.20
2022-10-28T03:45:40.242Z,62.20
2022-10-28T03:48:06.817Z,62.20
2022-10-28T03:50:33.605Z,62.20
2022-10-28T03:53:00.178Z,62.20
2022-10-28T03:55:26.746Z,62.20
2022-10-28T03:57:53.631Z,62.20
2022-10-28T04:00:20.418Z,62.20
2022-10-28T04:02:46.994Z,62.20
2022-10-28T04:05:13.786Z,62.20
2022-10-28T04:07:40.361Z,62.20
2022-10-28T04:10:06.930Z,62.20
2022-10-28T04:12:33.710Z,62.20
2022-10-28T04:15:00.489Z,62.20
2022-10-28T04:17:27.274Z,62.20
2022-10-28T04:19:53.851Z,62.20
2022-10-28T04:22:20.640Z,62.20
2022-10-28T04:24:47.219Z,62.20
2022-10-28T04:27:14.006Z,62.20
2022-10-28T04:29:40.591Z,62.20
2022-10-28T04:32:07.165Z,62.30
2022-10-28T04:34:33.743Z,62.20
2022-10-28T04:37:00.550Z,62.30
2022-10-28T04:39:27.123Z,62.20
2022-10-28T04:41:53.701Z,62.30
2022-10-28T04:44:20.283Z,62.20
2022-10-28T04:46:46.849Z,62.20
2022-10-28T04:49:13.644Z,62.20
2022-10-28T04:51:40.447Z,62.20
2022-10-28T04:54:07.277Z,62.20
2022-10-28T04:56:33.863Z,63.20
2022-10-28T04:59:00.438Z,62.20
2022-10-28T05:01:27.130Z,62.30
2022-10-28T05:03:53.789Z,62.20
2022-10-28T05:06:20.369Z,62.20
2022-10-28T05:08:46.947Z,62.20
2022-10-28T05:11:13.739Z,62.20
2022-10-28T05:13:40.318Z,62.30
2022-10-28T05:16:06.903Z,62.20
2022-10-28T05:18:33.518Z,62.20
2022-10-28T05:21:00.313Z,62.20
2022-10-28T05:23:29.903Z,62.20
2022-10-28T05:25:57.297Z,62.20
2022-10-28T05:28:23.882Z,62.20
2022-10-28T05:30:50.464Z,62.20
2022-10-28T05:33:17.051Z,62.20
2022-10-28T05:35:43.625Z,62.20
2022-10-28T05:38:10.204Z,62.30
2022-10-28T05:40:36.779Z,62.20
2022-10-28T05:43:03.355Z,62.30
2022-10-28T05:48:01.623Z,62.30
2022-10-28T05:50:28.423Z,62.20
2022-10-28T05:52:55.003Z,62.20
2022-10-28T05:55:21.582Z,62.20
2022-10-28T05:57:48.586Z,62.30
2022-10-28T06:00:15.171Z,62.30
2022-10-28T06:02:41.748Z,62.30
2022-10-28T06:05:08.332Z,62.20
2022-10-28T06:07:34.921Z,62.30
2022-10-28T06:10:01.531Z,62.30
2022-10-28T06:12:26.605Z,62.30
2022-10-28T06:14:53.413Z,62.30
2022-10-28T06:17:19.986Z,62.30
2022-10-28T06:19:46.799Z,62.30
2022-10-28T06:22:13.396Z,62.30
2022-10-28T06:24:40.181Z,62.30
2022-10-28T06:27:06.768Z,62.30
2022-10-28T06:29:33.553Z,62.30
2022-10-28T06:32:00.364Z,62.30
2022-10-28T06:34:26.963Z,62.30
2022-10-28T06:36:53.542Z,62.30
2022-10-28T06:39:20.155Z,62.30
2022-10-28T06:41:46.990Z,62.30
2022-10-28T06:44:13.575Z,62.30
2022-10-28T06:46:41.936Z,62.30
2022-10-28T06:49:08.557Z,62.20
2022-10-28T06:51:35.348Z,62.30
2022-10-28T06:54:01.933Z,62.30
2022-10-28T06:56:28.511Z,62.20
2022-10-28T06:58:55.308Z,62.30
2022-10-28T07:01:22.220Z,62.20
2022-10-28T07:03:48.874Z,62.30
2022-10-28T07:06:15.639Z,62.20
2022-10-28T07:08:42.343Z,62.20
2022-10-28T07:11:08.929Z,62.20
2022-10-28T07:13:35.714Z,62.10
2022-10-28T07:16:02.288Z,62.20
2022-10-28T07:18:28.870Z,62.10
2022-10-28T07:20:55.451Z,62.10
2022-10-28T07:23:22.039Z,62.20
2022-10-28T07:25:48.656Z,62.10
2022-10-28T07:28:15.252Z,62.10
2022-10-28T07:30:41.838Z,62.10
2022-10-28T07:33:08.420Z,62.10
2022-10-28T07:35:34.996Z,62.10
2022-10-28T07:38:01.578Z,62.10
2022-10-28T07:40:28.153Z,62.10
2022-10-28T07:42:54.914Z,62.10
2022-10-28T07:45:21.955Z,62.10
2022-10-28T07:47:48.740Z,62.00
2022-10-28T07:50:15.533Z,62.00
2022-10-28T07:52:42.112Z,62.00
2022-10-28T07:55:08.693Z,62.00
2022-10-28T07:57:35.283Z,62.00
2022-10-28T08:00:02.532Z,62.00
2022-10-28T08:02:29.104Z,62.10
2022-10-28T08:04:55.898Z,62.00
2022-10-28T08:07:22.472Z,62.00
2022-10-28T08:09:49.270Z,61.90
2022-10-28T08:12:15.846Z,62.00
2022-10-28T08:14:42.415Z,62.00
2022-10-28T08:17:08.988Z,61.90
2022-10-28T08:19:35.566Z,62.00
2022-10-28T08:22:02.403Z,61.90
2022-10-28T08:24:28.991Z,62.00
2022-10-28T08:26:55.783Z,62.00
2022-10-28T08:29:26.240Z,61.90
2022-10-28T08:31:55.611Z,61.90
2022-10-28T08:34:22.195Z,61.90
2022-10-28T08:36:48.880Z,61.90
2022-10-28T08:39:15.488Z,61.90
2022-10-28T08:41:42.267Z,61.90
2022-10-28T08:44:08.846Z,61.90
2022-10-28T08:46:35.417Z,61.90
2022-10-28T08:49:02.001Z,61.90
2022-10-28T08:51:28.599Z,61.90
2022-10-28T08:53:55.653Z,61.90
2022-10-28T08:56:22.239Z,61.80
2022-10-28T08:58:48.821Z,61.80
2022-10-28T09:01:15.679Z,61.80
2022-10-28T09:03:42.318Z,61.80
2022-10-28T09:06:09.110Z,61.80
2022-10-28T09:08:35.899Z,61.80
2022-10-28T09:11:02.488Z,62.80
2022-10-28T09:13:29.278Z,61.70
2022-10-28T09:15:55.873Z,61.80
2022-10-28T09:18:22.447Z,61.80
2022-10-28T09:20:49.036Z,61.80
2022-10-28T09:23:15.613Z,61.80
2022-10-28T09:25:42.416Z,61.70
2022-10-28T09:28:08.988Z,61.60
2022-10-28T09:30:35.571Z,61.60
2022-10-28T09:33:02.353Z,61.50
2022-10-28T09:35:28.932Z,61.50
2022-10-28T09:37:55.504Z,61.50
2022-10-28T09:40:22.723Z,61.50
2022-10-28T09:42:49.325Z,61.40
2022-10-28T09:45:16.136Z,61.40
2022-10-28T09:47:42.724Z,61.40
2022-10-28T09:50:09.300Z,61.50
2022-10-28T09:52:35.875Z,61.50
2022-10-28T09:55:02.453Z,61.50
2022-10-28T09:57:29.027Z,61.50
2022-10-28T09:59:55.605Z,61.50
2022-10-28T10:02:22.246Z,61.50
2022-10-28T10:04:48.864Z,61.40
2022-10-28T10:07:15.665Z,61.40
2022-10-28T10:09:42.454Z,61.40
2022-10-28T10:12:09.040Z,61.40
2022-10-28T10:14:35.829Z,61.40
2022-10-28T10:17:02.437Z,61.30
2022-10-28T10:19:29.231Z,61.40
2022-10-28T10:21:55.803Z,61.40
2022-10-28T10:24:22.399Z,61.30
2022-10-28T10:26:48.982Z,61.30
2022-10-28T10:29:15.555Z,61.30
2022-10-28T10:31:42.142Z,61.30
2022-10-28T10:34:08.741Z,61.20
2022-10-28T10:36:35.318Z,61.20
2022-10-28T10:39:01.904Z,61.20
2022-10-28T10:41:28.713Z,61.20
2022-10-28T10:43:55.328Z,61.20
2022-10-28T10:46:21.924Z,61.10
2022-10-28T10:48:48.721Z,61.00
2022-10-28T10:51:15.297Z,61.10
2022-10-28T10:53:42.099Z,61.00
2022-10-28T10:56:08.677Z,60.90
2022-10-28T10:58:35.269Z,60.90
2022-10-28T11:01:01.847Z,60.90
2022-10-28T11:03:28.439Z,60.90
2022-10-28T11:06:05.335Z,60.90
2022-10-28T11:08:41.601Z,61.00
2022-10-28T11:11:08.187Z,61.90
2022-10-28T11:13:34.767Z,60.90
2022-10-28T11:16:01.344Z,60.90
2022-10-28T11:18:28.146Z,60.80
2022-10-28T11:20:54.721Z,60.90
2022-10-28T11:23:21.318Z,60.90
2022-10-28T11:25:47.906Z,60.90
2022-10-28T11:28:14.494Z,60.90
2022-10-28T11:30:41.077Z,60.80
2022-10-28T11:33:24.751Z,60.80
2022-10-28T11:35:54.207Z,60.80
2022-10-28T11:38:20.780Z,60.80
2022-10-28T11:40:47.352Z,60.80
2022-10-28T11:43:14.135Z,60.80
2022-10-28T11:45:40.923Z,60.80
2022-10-28T11:48:07.728Z,60.80
2022-10-28T11:50:34.310Z,60.80
2022-10-28T11:53:00.889Z,60.80
2022-10-28T11:55:27.688Z,60.80
2022-10-28T11:57:54.411Z,60.90
2022-10-28T12:00:21.391Z,60.90
2022-10-28T12:02:50.719Z,60.90
2022-10-28T12:05:19.889Z,61.00
2022-10-28T12:07:46.473Z,60.90
2022-10-28T12:10:13.406Z,60.90
2022-10-28T12:12:41.374Z,60.80
2022-10-28T12:15:08.371Z,60.80
2022-10-28T12:17:34.953Z,60.90
2022-10-28T12:20:01.563Z,60.80
2022-10-28T12:22:28.161Z,60.60
2022-10-28T12:24:54.792Z,60.40
2022-10-28T12:27:21.403Z,60.40
2022-10-28T12:29:47.991Z,60.30
2022-10-28T12:32:14.573Z,60.20
2022-10-28T12:34:41.157Z,60.10
2022-10-28T12:37:07.953Z,60.00
2022-10-28T12:39:34.532Z,60.00
2022-10-28T12:42:01.117Z,59.90
2022-10-28T12:44:27.908Z,59.90
2022-10-28T12:46:54.524Z,60.00
2022-10-28T12:49:21.105Z,60.00
2022-10-28T12:51:47.694Z,59.60
2022-10-28T12:54:14.270Z,59.70
2022-10-28T12:56:40.844Z,59.90
2022-10-28T12:59:07.428Z,59.70
2022-10-28T13:01:34.110Z,59.50
2022-10-28T13:04:00.763Z,59.60
2022-10-28T13:06:27.427Z,59.80
2022-10-28T13:08:54.093Z,60.10
2022-10-28T13:11:20.870Z,60.00
2022-10-28T13:13:47.542Z,60.00
2022-10-28T13:16:14.177Z,59.90
2022-10-28T13:18:40.780Z,59.50
2022-10-28T13:21:07.366Z,59.20
2022-10-28T13:23:33.944Z,58.90
2022-10-28T13:26:00.521Z,58.10
2022-10-28T13:28:27.101Z,57.70
2022-10-28T13:30:53.893Z,57.40
2022-10-28T13:33:21.416Z,55.20
2022-10-28T13:35:48.017Z,54.90
2022-10-28T13:38:14.615Z,55.80
2022-10-28T13:40:41.201Z,55.80
2022-10-28T13:43:07.783Z,55.50
2022-10-28T13:45:34.383Z,55.70
2022-10-28T13:48:00.961Z,55.30
2022-10-28T13:50:27.751Z,55.00
2022-10-28T13:52:54.546Z,54.20
2022-10-28T13:55:21.336Z,53.80
2022-10-28T13:57:47.912Z,53.80
2022-10-28T14:00:14.758Z,53.70
2022-10-28T14:02:41.475Z,52.80
2022-10-28T14:05:08.345Z,52.30
2022-10-28T14:07:34.919Z,54.00
2022-10-28T14:10:01.715Z,54.30
2022-10-28T14:12:28.292Z,54.00
2022-10-28T14:14:54.891Z,53.90
2022-10-28T14:17:21.477Z,53.60
2022-10-28T14:19:48.057Z,53.00
2022-10-28T14:22:14.689Z,52.80
2022-10-28T14:24:41.326Z,52.60
2022-10-28T14:27:08.155Z,52.50
2022-10-28T14:29:34.764Z,52.50
2022-10-28T14:32:01.336Z,53.10
2022-10-28T14:34:28.140Z,53.70
2022-10-28T14:36:54.731Z,53.50
2022-10-28T14:39:21.345Z,53.70
2022-10-28T14:41:47.992Z,53.70
2022-10-28T14:44:14.891Z,53.70
2022-10-28T14:46:41.463Z,52.90
2022-10-28T14:49:11.600Z,51.20
2022-10-28T14:51:40.415Z,50.70
2022-10-28T14:54:06.998Z,51.50
2022-10-28T14:56:33.579Z,52.60
2022-10-28T14:59:00.162Z,53.50
2022-10-28T15:01:26.912Z,54.30
2022-10-28T15:03:53.857Z,55.00
2022-10-28T15:06:20.429Z,55.50
2022-10-28T15:08:46.999Z,55.80
2022-10-28T15:11:13.580Z,56.20
2022-10-28T15:13:40.156Z,56.40
2022-10-28T15:16:06.953Z,56.60
2022-10-28T15:18:33.537Z,56.80
2022-10-28T15:21:00.131Z,57.00
2022-10-28T15:23:26.747Z,57.20
2022-10-28T15:25:53.403Z,57.20
2022-10-28T15:28:19.985Z,57.40
2022-10-28T15:30:47.035Z,57.40
2022-10-28T15:33:13.672Z,57.50
2022-10-28T15:35:40.252Z,57.70
2022-10-28T15:38:07.035Z,57.80
2022-10-28T15:40:33.611Z,57.90
2022-10-28T15:43:00.268Z,58.10
2022-10-28T15:45:26.890Z,58.30
2022-10-28T15:47:53.776Z,58.40
2022-10-28T15:50:20.551Z,58.50
2022-10-28T15:52:47.344Z,58.60
2022-10-28T15:55:13.922Z,58.80
2022-10-28T15:57:40.501Z,58.90
2022-10-28T16:00:07.229Z,59.00
2022-10-28T16:02:34.190Z,59.10
2022-10-28T16:05:00.920Z,59.30
2022-10-28T16:07:27.714Z,59.40
2022-10-28T16:09:54.297Z,59.50
2022-10-28T16:12:20.882Z,59.60
2022-10-28T16:14:47.468Z,59.70
2022-10-28T16:17:14.319Z,59.80
2022-10-28T16:19:40.893Z,60.00
2022-10-28T16:22:07.473Z,60.00
2022-10-28T16:24:34.054Z,60.10
2022-10-28T16:27:00.633Z,60.20
2022-10-28T16:29:27.220Z,60.20
2022-10-28T16:31:53.805Z,60.20
2022-10-28T16:34:20.394Z,60.40
2022-10-28T16:36:47.186Z,60.40
2022-10-28T16:39:13.772Z,60.50
2022-10-28T16:41:40.568Z,60.60
2022-10-28T16:46:34.878Z,60.60
2022-10-28T16:49:01.452Z,60.70
2022-10-28T16:51:28.041Z,60.80
2022-10-28T16:53:54.625Z,60.80
2022-10-28T16:56:21.430Z,60.90
2022-10-28T16:58:48.008Z,60.80
2022-10-28T17:01:14.703Z,61.00
2022-10-28T17:03:41.412Z,61.00
2022-10-28T17:06:08.019Z,61.00
2022-10-28T17:09:01.153Z,61.10
2022-10-28T17:11:21.234Z,61.10
2022-10-28T17:13:47.859Z,61.20
2022-10-28T17:16:14.443Z,61.20
2022-10-28T17:18:41.018Z,61.20
2022-10-28T17:21:07.608Z,61.20
2022-10-28T17:23:34.204Z,61.30
2022-10-28T17:26:00.796Z,61.30
2022-10-28T17:28:27.405Z,61.30
2022-10-28T17:30:53.992Z,61.30
2022-10-28T17:33:20.576Z,61.40
2022-10-28T17:35:47.151Z,61.40
2022-10-28T17:38:13.719Z,61.40
2022-10-28T17:40:40.299Z,61.40
2022-10-28T17:43:06.881Z,61.30
2022-10-28T17:45:33.466Z,61.40
2022-10-28T17:48:00.044Z,61.40
2022-10-28T17:50:26.615Z,61.50
2022-10-28T17:52:53.535Z,61.40
2022-10-28T17:55:20.411Z,61.50
2022-10-28T17:57:46.984Z,61.50
2022-10-28T18:00:13.577Z,61.50
2022-10-28T18:02:40.624Z,61.50
2022-10-28T18:05:07.628Z,61.50
2022-10-28T18:07:34.209Z,61.50
2022-10-28T18:10:01.008Z,61.60
2022-10-28T18:12:27.589Z,61.60
2022-10-28T18:14:54.170Z,61.60
2022-10-28T18:17:20.742Z,61.60
2022-10-28T18:19:47.532Z,61.60
2022-10-28T18:22:14.159Z,61.70
2022-10-28T18:24:41.000Z,61.70
2022-10-28T18:27:07.580Z,61.70
2022-10-28T18:29:34.157Z,61.70
2022-10-28T18:32:00.942Z,61.70
2022-10-28T18:34:27.765Z,61.70
2022-10-28T18:36:54.580Z,61.70
2022-10-28T18:39:21.370Z,61.80
2022-10-28T18:41:47.942Z,61.80
2022-10-28T18:44:14.731Z,61.80
2022-10-28T18:46:41.312Z,61.80
2022-10-28T18:49:07.902Z,61.80
2022-10-28T18:51:34.479Z,61.90
2022-10-28T18:54:01.073Z,61.90
2022-10-28T18:56:27.884Z,61.90
2022-10-28T18:58:54.470Z,61.80
2022-10-28T19:01:21.185Z,61.80
2022-10-28T19:03:47.866Z,61.80
2022-10-28T19:06:14.670Z,61.90
2022-10-28T19:08:41.251Z,61.80
2022-10-28T19:11:07.842Z,61.90
2022-10-28T19:13:34.419Z,61.90
2022-10-28T19:16:01.037Z,62.00
2022-10-28T19:18:27.677Z,61.90
2022-10-28T19:20:54.250Z,61.90
2022-10-28T19:23:20.836Z,61.90
2022-10-28T19:25:47.420Z,62.00
2022-10-28T19:28:14.016Z,62.00
2022-10-28T19:30:40.605Z,62.00
2022-10-28T19:33:07.183Z,62.00
2022-10-28T19:35:33.769Z,62.00
2022-10-28T19:38:00.352Z,62.00
2022-10-28T19:40:27.133Z,62.00
2022-10-28T19:42:53.851Z,62.00
2022-10-28T19:45:20.567Z,62.10
2022-10-28T19:47:47.149Z,62.00
2022-10-28T19:50:13.722Z,62.10
2022-10-28T19:52:40.344Z,62.10
2022-10-28T19:55:10.931Z,62.10
2022-10-28T19:57:40.546Z,62.10
2022-10-28T20:00:07.328Z,62.10
2022-10-28T20:02:34.031Z,62.10
2022-10-28T20:05:00.899Z,62.10
2022-10-28T20:07:27.485Z,62.10
2022-10-28T20:09:54.314Z,62.10
2022-10-28T20:12:20.931Z,62.10
2022-10-28T20:14:47.723Z,62.10
2022-10-28T20:17:14.311Z,62.10
2022-10-28T20:19:41.113Z,62.20
2022-10-28T20:22:07.685Z,62.20
2022-10-28T20:24:34.268Z,62.20
2022-10-28T20:27:01.051Z,62.20
2022-10-28T20:29:27.632Z,62.20
2022-10-28T20:31:54.416Z,62.20
2022-10-28T20:34:20.983Z,62.20
2022-10-28T20:36:47.572Z,62.20
2022-10-28T20:39:14.159Z,62.20
2022-10-28T20:41:40.945Z,62.20
2022-10-28T20:44:07.645Z,62.20
2022-10-28T20:46:34.222Z,62.20
2022-10-28T20:49:00.878Z,62.20
2022-10-28T20:51:27.519Z,62.20
2022-10-28T20:53:54.320Z,62.30
2022-10-28T20:56:20.908Z,62.20
2022-10-28T20:58:47.483Z,62.20
2022-10-28T21:01:14.359Z,62.20
2022-10-28T21:03:41.120Z,62.30
2022-10-28T21:06:07.749Z,62.20
2022-10-28T21:08:34.575Z,62.20
2022-10-28T21:11:01.157Z,62.30
2022-10-28T21:13:27.745Z,62.30
2022-10-28T21:15:57.471Z,62.30
2022-10-28T21:18:24.559Z,62.30
2022-10-28T21:20:51.149Z,62.30
2022-10-28T21:23:17.741Z,62.30
2022-10-28T21:25:44.324Z,62.30
2022-10-28T21:28:10.899Z,62.30
2022-10-28T21:30:37.482Z,62.30
2022-10-28T21:33:04.055Z,62.30
2022-10-28T21:35:30.631Z,62.30
2022-10-28T21:37:57.560Z,62.30
2022-10-28T21:40:24.375Z,62.30
2022-10-28T21:42:50.947Z,62.40
2022-10-28T21:45:17.535Z,62.30
2022-10-28T21:47:44.324Z,62.30
2022-10-28T21:50:10.917Z,62.30
2022-10-28T21:52:37.702Z,62.40
2022-10-28T21:55:14.566Z,62.40
2022-10-28T21:57:47.643Z,62.30
2022-10-28T22:00:14.216Z,62.40
2022-10-28T22:02:40.963Z,62.40
2022-10-28T22:05:07.899Z,62.40
2022-10-28T22:07:34.485Z,62.40
2022-10-28T22:10:01.081Z,62.40
2022-10-28T22:12:27.658Z,62.40
2022-10-28T22:14:54.239Z,62.40
2022-10-28T22:17:20.822Z,62.40
2022-10-28T22:19:47.411Z,62.40
2022-10-28T22:22:13.996Z,62.40
2022-10-28T22:24:40.570Z,62.30
2022-10-28T22:27:07.160Z,62.40
2022-10-28T22:29:33.736Z,62.40
2022-10-28T22:32:00.323Z,62.30
2022-10-28T22:34:26.900Z,62.30
2022-10-28T22:36:53.480Z,62.40
2022-10-28T22:39:20.073Z,62.30
2022-10-28T22:41:46.857Z,62.40
2022-10-28T22:44:13.444Z,62.40
2022-10-28T22:46:40.242Z,62.40
2022-10-28T22:49:06.828Z,62.40
2022-10-28T22:51:33.407Z,62.40
2022-10-28T22:54:00.192Z,62.40
2022-10-28T22:56:26.769Z,62.40
2022-10-28T22:58:53.548Z,62.40
2022-10-28T23:01:20.392Z,62.40
2022-10-28T23:03:47.076Z,62.50
2022-10-28T23:06:13.864Z,62.40
2022-10-28T23:08:40.433Z,62.40
2022-10-28T23:11:07.224Z,62.50
2022-10-28T23:13:33.848Z,62.40
2022-10-28T23:16:00.450Z,62.40
2022-10-28T23:18:27.028Z,62.40
2022-10-28T23:20:53.823Z,62.40
2022-10-28T23:23:20.405Z,62.40
2022-10-28T23:25:47.010Z,62.40
2022-10-28T23:28:13.800Z,62.50
2022-10-28T23:30:40.600Z,62.40
2022-10-28T23:33:07.389Z,62.50
2022-10-28T23:35:33.974Z,62.40
2022-10-28T23:38:00.562Z,62.40
2022-10-28T23:40:27.140Z,62.40
2022-10-28T23:42:54.055Z,62.40
2022-10-28T23:45:21.054Z,62.40
2022-10-28T23:47:47.627Z,62.40
2022-10-28T23:50:14.203Z,62.40
2022-10-28T23:52:40.789Z,62.40
2022-10-28T23:55:07.585Z,62.40
2022-10-28T23:57:34.216Z,62.40
